createdAt,value
2019-04-28T00:02:11.857Z,17.85
2019-04-28T00:04:43.376Z,17.83
2019-04-28T00:07:14.761Z,17.82
2019-04-28T00:09:46.152Z,17.81
2019-04-28T00:12:17.507Z,17.74
2019-04-28T00:14:48.950Z,17.74
2019-04-28T00:17:21.102Z,17.71
2019-04-28T00:19:54.056Z,17.68
2019-04-28T00:22:30.769Z,17.68
2019-04-28T00:25:11.507Z,17.68
2019-04-28T00:27:42.950Z,17.69
2019-04-28T00:30:14.401Z,17.65
2019-04-28T00:32:45.222Z,17.65
2019-04-28T00:35:16.250Z,17.59
2019-04-28T00:37:47.602Z,17.61
2019-04-28T00:40:18.909Z,17.56
2019-04-28T00:42:51.203Z,17.56
2019-04-28T00:45:22.724Z,17.56
2019-04-28T00:47:57.162Z,17.52
2019-04-28T00:50:28.575Z,17.52
2019-04-28T00:53:01.755Z,17.53
2019-04-28T00:55:32.980Z,17.53
2019-04-28T00:58:03.727Z,17.52
2019-04-28T04:59:30.226Z,18.42
2019-04-28T05:02:05.877Z,18.11
2019-04-28T05:04:47.766Z,17.95
2019-04-28T05:09:19.787Z,18.07
2019-04-28T05:11:51.165Z,18.00
2019-04-28T05:14:22.701Z,17.99
2019-04-28T05:16:53.419Z,17.96
2019-04-28T05:19:24.576Z,17.92
2019-04-28T05:22:00.043Z,17.92
2019-04-28T05:24:40.801Z,17.97
2019-04-28T05:27:12.175Z,17.91
2019-04-28T05:29:45.098Z,17.95
2019-04-28T05:32:16.546Z,17.92
2019-04-28T05:34:50.248Z,17.91
2019-04-28T05:37:21.290Z,17.85
2019-04-28T05:39:52.789Z,17.85
2019-04-28T05:42:23.513Z,17.78
2019-04-28T05:44:54.586Z,17.57
2019-04-28T05:47:25.891Z,17.66
2019-04-28T05:49:59.888Z,17.53
2019-04-28T05:52:32.799Z,17.33
2019-04-28T05:55:20.396Z,17.26
2019-04-28T05:58:06.607Z,17.35
2019-04-28T06:00:42.668Z,17.36
2019-04-28T06:03:21.683Z,17.26
2019-04-28T06:05:53.143Z,17.31
2019-04-28T06:08:35.103Z,17.36
2019-04-28T06:11:24.162Z,17.45
2019-04-28T06:13:55.819Z,17.50
2019-04-28T06:16:27.165Z,17.54
2019-04-28T06:18:59.953Z,17.59
2019-04-28T06:21:31.632Z,17.59
2019-04-28T06:24:03.059Z,17.63
2019-04-28T06:26:34.368Z,17.62
2019-04-28T06:29:05.757Z,17.65
2019-04-28T06:31:37.110Z,17.65
2019-04-28T06:34:08.539Z,17.63
2019-04-28T06:36:40.075Z,17.63
2019-04-28T06:39:12.528Z,17.56
2019-04-28T06:41:44.093Z,17.55
2019-04-28T06:44:14.813Z,17.54
2019-04-28T06:46:46.383Z,17.48
2019-04-28T06:49:19.229Z,17.52
2019-04-28T06:51:50.627Z,17.52
2019-04-28T06:54:21.982Z,17.60
2019-04-28T06:56:53.421Z,17.64
2019-04-28T06:59:24.800Z,17.67
2019-04-28T07:01:56.322Z,17.67
2019-04-28T07:04:27.084Z,17.72
2019-04-28T07:06:58.193Z,17.65
2019-04-28T07:09:29.126Z,17.78
2019-04-28T07:12:00.337Z,17.76
2019-04-28T07:14:31.221Z,17.90
2019-04-28T07:17:02.427Z,17.83
2019-04-28T07:19:33.559Z,17.94
2019-04-28T07:22:09.425Z,17.94
2019-04-28T07:24:40.905Z,18.06
2019-04-28T07:27:12.272Z,18.21
2019-04-28T07:29:43.811Z,18.65
2019-04-28T07:32:14.759Z,19.00
2019-04-28T07:34:47.651Z,19.26
2019-04-28T07:37:18.944Z,19.41
2019-04-28T07:39:50.496Z,19.55
2019-04-28T07:42:21.873Z,19.79
2019-04-28T07:44:53.424Z,20.00
2019-04-28T07:47:24.857Z,20.09
2019-04-28T07:49:57.381Z,20.24
2019-04-28T07:52:29.825Z,20.43
2019-04-28T07:55:00.923Z,20.49
2019-04-28T07:57:32.294Z,20.69
2019-04-28T08:00:06.069Z,20.74
2019-04-28T08:02:38.929Z,20.67
2019-04-28T08:05:09.803Z,20.71
2019-04-28T08:07:40.955Z,20.62
2019-04-28T08:10:11.690Z,20.71
2019-04-28T08:12:42.772Z,20.64
2019-04-28T08:15:13.630Z,20.73
2019-04-28T08:17:44.736Z,20.83
2019-04-28T08:20:16.115Z,20.99
2019-04-28T08:22:46.824Z,20.98
2019-04-28T08:25:18.019Z,20.89
2019-04-28T08:27:48.822Z,21.00
2019-04-28T08:30:19.953Z,20.95
2019-04-28T08:32:52.853Z,21.09
2019-04-28T08:35:24.381Z,21.12
2019-04-28T08:37:55.771Z,21.12
2019-04-28T08:40:26.601Z,21.19
2019-04-28T08:42:57.954Z,21.27
2019-04-28T08:45:29.418Z,21.37
2019-04-28T08:48:01.181Z,21.53
2019-04-28T08:50:32.435Z,21.55
2019-04-28T08:53:04.817Z,21.53
2019-04-28T08:55:36.176Z,21.64
2019-04-28T08:58:06.831Z,21.72
2019-04-28T09:00:37.997Z,21.70
2019-04-28T09:03:10.389Z,21.82
2019-04-28T09:05:41.220Z,21.72
2019-04-28T09:08:12.320Z,21.60
2019-04-28T09:10:43.709Z,21.70
2019-04-28T09:13:14.565Z,21.74
2019-04-28T09:15:45.633Z,21.34
2019-04-28T09:18:17.081Z,21.47
2019-04-28T09:20:47.700Z,21.50
2019-04-28T09:23:18.791Z,21.48
2019-04-28T09:25:50.190Z,21.56
2019-04-28T09:28:20.921Z,21.62
2019-04-28T09:30:51.950Z,21.51
2019-04-28T09:33:24.285Z,21.49
2019-04-28T09:35:55.126Z,21.22
2019-04-28T09:38:26.186Z,21.16
2019-04-28T09:40:57.534Z,21.32
2019-04-28T09:43:46.068Z,21.32
2019-04-28T09:46:18.340Z,21.38
2019-04-28T09:48:49.693Z,21.33
2019-04-28T09:51:21.123Z,21.31
2019-04-28T09:53:51.749Z,21.42
2019-04-28T09:56:22.815Z,21.49
2019-04-28T09:58:54.213Z,21.60
2019-04-28T10:01:25.025Z,21.58
2019-04-28T10:03:56.127Z,21.48
2019-04-28T10:06:26.832Z,21.56
2019-04-28T10:08:58.005Z,21.66
2019-04-28T10:11:30.635Z,21.75
2019-04-28T10:14:01.552Z,21.72
2019-04-28T10:16:32.256Z,21.88
2019-04-28T10:19:03.394Z,21.89
2019-04-28T10:21:34.099Z,21.94
2019-04-28T10:24:05.201Z,21.83
2019-04-28T10:26:36.015Z,21.74
2019-04-28T10:29:07.089Z,21.56
2019-04-28T10:31:38.440Z,21.70
2019-04-28T10:34:12.366Z,21.74
2019-04-28T10:36:46.573Z,21.77
2019-04-28T10:39:22.589Z,21.79
2019-04-28T10:41:54.075Z,21.85
2019-04-28T10:44:25.461Z,21.96
2019-04-28T10:46:57.659Z,21.69
2019-04-28T10:49:28.485Z,21.61
2019-04-28T10:51:59.885Z,21.46
2019-04-28T10:54:31.340Z,21.61
2019-04-28T10:57:02.727Z,21.72
2019-04-28T10:59:33.440Z,21.72
2019-04-28T11:02:17.736Z,21.65
2019-04-28T11:04:52.956Z,21.72
2019-04-28T11:07:32.405Z,21.82
2019-04-28T11:10:38.159Z,21.90
2019-04-28T11:13:01.395Z,21.90
2019-04-28T11:15:37.898Z,21.97
2019-04-28T11:18:11.013Z,22.00
2019-04-28T11:20:42.519Z,22.16
2019-04-28T11:23:14.163Z,22.18
2019-04-28T11:25:45.627Z,22.19
2019-04-28T11:28:17.068Z,22.09
2019-04-28T11:30:48.808Z,22.13
2019-04-28T11:33:33.267Z,22.30
2019-04-28T11:36:06.765Z,22.23
2019-04-28T11:38:38.259Z,22.22
2019-04-28T11:41:11.521Z,22.30
2019-04-28T11:43:41.709Z,22.15
2019-04-28T11:46:14.135Z,22.10
2019-04-28T11:48:46.282Z,21.87
2019-04-28T11:51:17.942Z,21.89
2019-04-28T11:53:51.021Z,21.92
2019-04-28T11:56:23.252Z,21.87
2019-04-28T11:58:53.955Z,21.81
2019-04-28T12:01:25.302Z,21.68
2019-04-28T12:03:58.301Z,21.73
2019-04-28T12:06:29.759Z,21.71
2019-04-28T12:09:02.234Z,21.64
2019-04-28T12:11:37.244Z,21.56
2019-04-28T12:14:13.676Z,21.55
2019-04-28T12:16:49.757Z,21.59
2019-04-28T12:19:29.359Z,21.69
2019-04-28T12:22:00.836Z,21.56
2019-04-28T12:24:31.658Z,21.57
2019-04-28T12:27:02.882Z,21.43
2019-04-28T12:29:34.164Z,21.46
2019-04-28T12:32:05.557Z,21.42
2019-04-28T12:34:36.968Z,21.40
2019-04-28T12:37:09.876Z,21.47
2019-04-28T12:39:42.418Z,21.58
2019-04-28T12:42:13.859Z,21.56
2019-04-28T12:44:45.935Z,21.58
2019-04-28T12:47:18.331Z,21.51
2019-04-28T12:49:52.455Z,21.70
2019-04-28T12:52:23.797Z,21.70
2019-04-28T12:54:55.114Z,21.58
2019-04-28T12:57:25.867Z,21.65
2019-04-28T13:00:01.213Z,21.67
2019-04-28T13:02:35.653Z,21.78
2019-04-28T13:05:14.629Z,21.95
2019-04-28T13:07:45.967Z,21.97
2019-04-28T13:10:16.706Z,21.85
2019-04-28T13:12:47.889Z,21.76
2019-04-28T13:15:19.288Z,21.80
2019-04-28T13:17:51.883Z,21.77
2019-04-28T13:20:22.623Z,21.75
2019-04-28T13:22:53.690Z,21.64
2019-04-28T13:25:25.030Z,21.58
2019-04-28T13:27:56.388Z,21.68
2019-04-28T13:30:28.094Z,21.66
2019-04-28T13:32:59.446Z,21.58
2019-04-28T13:35:30.224Z,21.58
2019-04-28T13:38:02.146Z,21.42
2019-04-28T13:40:35.155Z,21.35
2019-04-28T13:43:11.799Z,21.36
2019-04-28T13:45:45.536Z,21.38
2019-04-28T13:48:16.242Z,21.26
2019-04-28T13:50:48.930Z,21.05
2019-04-28T13:53:20.458Z,21.14
2019-04-28T13:55:53.361Z,21.23
2019-04-28T13:58:29.248Z,21.36
2019-04-28T14:01:20.334Z,21.41
2019-04-28T14:03:59.587Z,21.36
2019-04-28T14:06:32.572Z,21.34
2019-04-28T14:09:05.617Z,21.53
2019-04-28T14:11:38.120Z,21.57
2019-04-28T14:14:09.661Z,21.57
2019-04-28T14:16:41.022Z,21.48
2019-04-28T14:19:11.905Z,21.40
2019-04-28T14:21:42.944Z,21.19
2019-04-28T14:24:14.436Z,21.35
2019-04-28T14:26:46.353Z,21.42
2019-04-28T14:29:17.731Z,21.49
2019-04-28T14:31:48.384Z,21.52
2019-04-28T14:34:19.472Z,21.42
2019-04-28T14:36:50.172Z,21.43
2019-04-28T14:39:21.276Z,21.27
2019-04-28T14:41:52.063Z,21.34
2019-04-28T14:44:23.256Z,21.33
2019-04-28T14:46:54.688Z,21.35
2019-04-28T14:49:26.020Z,21.36
2019-04-28T14:51:56.747Z,21.38
2019-04-28T14:54:27.851Z,21.38
2019-04-28T14:56:59.254Z,21.53
2019-04-28T14:59:31.041Z,21.53
2019-04-28T15:02:04.103Z,21.49
2019-04-28T15:04:49.398Z,21.50
2019-04-28T15:07:38.761Z,21.56
2019-04-28T15:10:28.142Z,21.59
2019-04-28T15:12:59.742Z,21.71
2019-04-28T15:15:31.199Z,21.92
2019-04-28T15:18:03.823Z,22.03
2019-04-28T15:20:34.549Z,21.96
2019-04-28T15:23:05.587Z,21.71
2019-04-28T15:25:37.020Z,21.75
2019-04-28T15:28:07.634Z,21.90
2019-04-28T15:30:38.734Z,21.85
2019-04-28T15:33:10.091Z,21.93
2019-04-28T15:35:42.606Z,21.94
2019-04-28T15:38:13.332Z,21.88
2019-04-28T15:40:44.489Z,21.77
2019-04-28T15:43:15.144Z,21.88
2019-04-28T15:45:46.314Z,21.86
2019-04-28T15:48:17.004Z,21.91
2019-04-28T15:50:48.160Z,21.83
2019-04-28T15:53:18.956Z,21.85
2019-04-28T15:56:06.925Z,21.76
2019-04-28T15:58:39.661Z,21.79
2019-04-28T16:01:11.125Z,21.79
2019-04-28T16:03:42.661Z,21.79
2019-04-28T16:06:14.983Z,21.71
2019-04-28T16:08:46.133Z,21.49
2019-04-28T16:11:17.543Z,21.44
2019-04-28T16:13:48.162Z,21.31
2019-04-28T16:16:19.277Z,21.16
2019-04-28T16:18:50.621Z,21.13
2019-04-28T16:21:21.473Z,20.97
2019-04-28T16:23:52.567Z,20.77
2019-04-28T16:26:23.332Z,20.70
2019-04-28T16:28:54.471Z,20.54
2019-04-28T16:31:25.965Z,20.47
2019-04-28T16:33:56.807Z,20.36
2019-04-28T16:36:27.878Z,20.01
2019-04-28T16:39:01.165Z,19.90
2019-04-28T16:41:35.068Z,19.77
2019-04-28T16:44:10.823Z,19.70
2019-04-28T16:46:42.516Z,19.58
2019-04-28T16:49:14.127Z,19.44
2019-04-28T16:51:46.741Z,19.30
2019-04-28T16:54:18.856Z,19.17
2019-04-28T16:57:01.375Z,18.97
2019-04-28T16:59:34.642Z,18.77
2019-04-28T17:02:07.975Z,18.59
2019-04-28T17:04:39.620Z,18.48
2019-04-28T17:07:10.379Z,18.33
2019-04-28T17:09:41.518Z,18.06
2019-04-28T17:12:13.036Z,18.11
2019-04-28T17:14:43.729Z,18.08
2019-04-28T17:17:14.828Z,17.83
2019-04-28T17:19:45.617Z,17.92
2019-04-28T17:22:16.660Z,17.87
2019-04-28T17:24:48.067Z,18.02
2019-04-28T17:27:19.571Z,18.05
2019-04-28T17:29:51.292Z,18.02
2019-04-28T17:32:22.538Z,17.86
2019-04-28T17:34:53.823Z,17.95
2019-04-28T17:37:25.384Z,18.01
2019-04-28T17:39:57.989Z,18.06
2019-04-28T17:42:28.899Z,18.07
2019-04-28T17:44:59.982Z,17.99
2019-04-28T17:47:31.416Z,18.08
2019-04-28T17:50:02.800Z,18.14
2019-04-28T17:52:33.661Z,18.17
2019-04-28T17:55:05.876Z,18.11
2019-04-28T17:57:37.311Z,18.20
2019-04-28T18:00:12.902Z,18.24
2019-04-28T18:02:57.834Z,18.29
2019-04-28T18:05:33.848Z,18.35
2019-04-28T18:08:05.217Z,18.42
2019-04-28T18:10:37.072Z,18.44
2019-04-28T18:13:08.542Z,18.41
2019-04-28T18:15:40.916Z,18.45
2019-04-28T18:18:16.528Z,18.39
2019-04-28T18:20:47.936Z,18.54
2019-04-28T18:23:18.670Z,18.61
2019-04-28T18:25:49.889Z,18.49
2019-04-28T18:28:20.536Z,18.52
2019-04-28T18:31:11.774Z,18.40
2019-04-28T18:34:00.920Z,18.45
2019-04-28T18:36:34.081Z,18.47
2019-04-28T18:39:24.685Z,18.54
2019-04-28T18:41:57.715Z,18.54
2019-04-28T18:44:29.103Z,18.51
2019-04-28T18:47:00.420Z,18.50
2019-04-28T18:49:32.041Z,18.37
2019-04-28T18:52:04.589Z,18.22
2019-04-28T18:54:36.207Z,18.12
2019-04-28T18:57:07.603Z,17.82
2019-04-28T18:59:39.026Z,17.82
2019-04-28T19:02:14.089Z,17.74
2019-04-28T19:04:46.332Z,17.59
2019-04-28T19:07:19.232Z,17.65
2019-04-28T19:09:53.314Z,17.64
2019-04-28T19:12:35.250Z,17.61
2019-04-28T19:15:08.343Z,17.53
2019-04-28T19:17:41.350Z,17.44
2019-04-28T19:20:13.795Z,17.37
2019-04-28T19:22:46.613Z,17.24
2019-04-28T19:25:18.079Z,17.05
2019-04-28T19:27:49.482Z,16.93
2019-04-28T19:30:20.796Z,16.84
2019-04-28T19:32:51.732Z,16.71
2019-04-28T19:35:22.801Z,16.52
2019-04-28T19:37:53.573Z,16.50
2019-04-28T19:40:24.669Z,16.27
2019-04-28T19:42:55.444Z,16.34
2019-04-28T19:45:26.528Z,16.10
2019-04-28T19:47:57.906Z,16.17
2019-04-28T19:50:29.321Z,16.10
2019-04-28T19:53:01.060Z,16.00
2019-04-28T19:55:39.609Z,15.84
2019-04-28T19:58:14.089Z,15.79
2019-04-28T20:00:48.625Z,15.74
2019-04-28T20:03:21.106Z,15.75
2019-04-28T20:05:52.621Z,15.76
2019-04-28T20:08:23.984Z,15.73
2019-04-28T20:10:56.344Z,15.72
2019-04-28T20:13:27.708Z,15.71
2019-04-28T20:16:00.362Z,15.69
2019-04-28T20:18:31.150Z,15.60
2019-04-28T20:21:02.296Z,15.42
2019-04-28T20:23:33.777Z,15.42
2019-04-28T20:26:05.179Z,15.40
2019-04-28T20:28:36.499Z,15.43
2019-04-28T20:31:07.908Z,15.42
2019-04-28T20:33:39.249Z,15.40
2019-04-28T20:36:28.630Z,15.36
2019-04-28T20:39:04.308Z,15.33
2019-04-28T20:41:37.506Z,15.38
2019-04-28T20:44:08.856Z,15.53
2019-04-28T20:46:40.223Z,15.73
2019-04-28T20:49:11.529Z,15.88
2019-04-28T20:51:42.962Z,15.97
2019-04-28T20:54:13.763Z,16.02
2019-04-28T20:56:44.849Z,16.01
2019-04-28T20:59:16.135Z,16.12
2019-04-28T21:01:47.537Z,16.20
2019-04-28T21:04:18.923Z,16.21
2019-04-28T21:06:50.311Z,16.27
2019-04-28T21:09:21.570Z,16.28
2019-04-28T21:11:52.989Z,16.19
2019-04-28T21:14:24.356Z,16.13
2019-04-28T21:16:56.899Z,15.96
2019-04-28T21:19:28.177Z,15.81
2019-04-28T21:21:59.625Z,15.72
2019-04-28T21:24:30.898Z,15.61
2019-04-28T21:27:02.416Z,15.72
2019-04-28T21:29:33.807Z,15.73
2019-04-28T21:32:04.554Z,15.78
2019-04-28T21:34:35.640Z,15.79
2019-04-28T21:37:07.015Z,16.02
2019-04-28T21:39:38.354Z,16.25
2019-04-28T21:42:11.307Z,16.37
2019-04-28T21:45:00.718Z,16.45
2019-04-28T21:47:34.851Z,16.43
2019-04-28T21:50:06.963Z,16.24
2019-04-28T21:52:38.338Z,16.04
2019-04-28T21:55:09.746Z,15.96
2019-04-28T21:57:41.180Z,15.84
2019-04-28T22:00:14.102Z,15.83
2019-04-28T22:03:02.869Z,15.86
2019-04-28T22:05:34.169Z,15.90
2019-04-28T22:08:05.509Z,16.00
2019-04-28T22:10:36.849Z,16.13
2019-04-28T22:13:08.170Z,16.21
2019-04-28T22:15:39.635Z,16.23
2019-04-28T22:18:11.011Z,16.09
2019-04-28T22:20:42.367Z,15.89
2019-04-28T22:23:27.347Z,15.73
2019-04-28T22:25:58.776Z,15.51
2019-04-28T22:28:30.179Z,15.28
2019-04-28T22:31:01.830Z,15.15
2019-04-28T22:33:32.589Z,15.04
2019-04-28T22:36:03.685Z,14.84
2019-04-28T22:38:35.045Z,14.84
2019-04-28T22:41:06.388Z,14.84
2019-04-28T22:43:37.702Z,14.81
2019-04-28T22:46:09.121Z,14.84
2019-04-28T22:48:39.973Z,14.86
2019-04-28T22:51:10.987Z,14.73
2019-04-28T22:53:44.094Z,14.79
2019-04-28T22:56:22.978Z,14.81
2019-04-28T22:58:58.895Z,14.77
2019-04-28T23:01:31.934Z,14.73
2019-04-28T23:04:04.958Z,14.70
2019-04-28T23:06:36.420Z,14.65
2019-04-28T23:09:09.647Z,14.66
2019-04-28T23:11:42.502Z,14.65
2019-04-28T23:14:13.890Z,14.67
2019-04-28T23:16:45.239Z,14.73
2019-04-28T23:19:18.224Z,14.73
2019-04-28T23:22:09.250Z,14.66
2019-04-28T23:24:43.273Z,14.62
2019-04-28T23:27:14.585Z,14.53
2019-04-28T23:29:45.975Z,14.45
2019-04-28T23:32:17.438Z,14.48
2019-04-28T23:34:48.809Z,14.46
2019-04-28T23:37:20.094Z,14.46
2019-04-28T23:39:51.465Z,14.44
2019-04-28T23:42:27.392Z,14.37
2019-04-28T23:44:58.954Z,14.34
2019-04-28T23:47:29.725Z,14.24
2019-04-28T23:50:00.850Z,14.09
2019-04-28T23:52:33.219Z,14.09
2019-04-28T23:55:07.362Z,13.97
2019-04-28T23:57:38.443Z,13.86
